sensor_id;sensor_type;location;lat;lon;timestamp;temperature;humidity
77582;DHT22;66726;52.388;9.986;2023-05-29T00:02:07;16.60;85.20
77582;DHT22;66726;52.388;9.986;2023-05-29T00:04:40;16.40;86.30
77582;DHT22;66726;52.388;9.986;2023-05-29T00:07:14;16.30;87.40
77582;DHT22;66726;52.388;9.986;2023-05-29T00:09:47;16.40;87.70
77582;DHT22;66726;52.388;9.986;2023-05-29T00:12:21;16.30;87.90
77582;DHT22;66726;52.388;9.986;2023-05-29T00:14:54;16.10;88.80
77582;DHT22;66726;52.388;9.986;2023-05-29T00:17:27;16.10;90.00
77582;DHT22;66726;52.388;9.986;2023-05-29T00:20:02;16.10;90.00
77582;DHT22;66726;52.388;9.986;2023-05-29T00:22:39;16.00;90.30
77582;DHT22;66726;52.388;9.986;2023-05-29T00:25:14;16.10;90.30
77582;DHT22;66726;52.388;9.986;2023-05-29T00:27:48;16.00;90.60
77582;DHT22;66726;52.388;9.986;2023-05-29T00:30:22;15.80;90.80
77582;DHT22;66726;52.388;9.986;2023-05-29T00:32:55;15.80;91.20
77582;DHT22;66726;52.388;9.986;2023-05-29T00:35:29;15.80;91.20
77582;DHT22;66726;52.388;9.986;2023-05-29T00:38:03;15.80;91.20
77582;DHT22;66726;52.388;9.986;2023-05-29T00:40:36;15.80;91.40
77582;DHT22;66726;52.388;9.986;2023-05-29T00:43:10;15.60;91.70
77582;DHT22;66726;52.388;9.986;2023-05-29T00:45:44;15.40;92.10
77582;DHT22;66726;52.388;9.986;2023-05-29T00:48:17;15.60;92.00
77582;DHT22;66726;52.388;9.986;2023-05-29T00:50:51;15.60;91.70
77582;DHT22;66726;52.388;9.986;2023-05-29T00:53:25;15.50;92.00
77582;DHT22;66726;52.388;9.986;2023-05-29T00:55:59;15.20;92.60
77582;DHT22;66726;52.388;9.986;2023-05-29T00:58:35;15.20;92.70
77582;DHT22;66726;52.388;9.986;2023-05-29T01:01:10;15.10;93.00
77582;DHT22;66726;52.388;9.986;2023-05-29T01:03:44;15.00;93.20
77582;DHT22;66726;52.388;9.986;2023-05-29T01:06:19;15.10;93.20
77582;DHT22;66726;52.388;9.986;2023-05-29T01:08:53;14.90;93.20
77582;DHT22;66726;52.388;9.986;2023-05-29T01:11:35;15.00;93.20
77582;DHT22;66726;52.388;9.986;2023-05-29T01:14:21;15.00;93.10
77582;DHT22;66726;52.388;9.986;2023-05-29T01:17:06;15.00;93.10
77582;DHT22;66726;52.388;9.986;2023-05-29T01:20:12;15.00;93.00
77582;DHT22;66726;52.388;9.986;2023-05-29T01:23:11;15.00;93.00
77582;DHT22;66726;52.388;9.986;2023-05-29T01:26:05;14.90;93.20
77582;DHT22;66726;52.388;9.986;2023-05-29T01:28:49;14.70;93.30
77582;DHT22;66726;52.388;9.986;2023-05-29T01:31:27;14.80;93.30
77582;DHT22;66726;52.388;9.986;2023-05-29T01:34:02;14.60;93.50
77582;DHT22;66726;52.388;9.986;2023-05-29T01:36:35;14.60;93.50
77582;DHT22;66726;52.388;9.986;2023-05-29T01:39:09;14.60;93.60
77582;DHT22;66726;52.388;9.986;2023-05-29T01:41:43;14.60;93.60
77582;DHT22;66726;52.388;9.986;2023-05-29T01:44:18;14.60;93.50
77582;DHT22;66726;52.388;9.986;2023-05-29T01:46:53;14.60;93.90
77582;DHT22;66726;52.388;9.986;2023-05-29T01:49:28;14.60;93.40
77582;DHT22;66726;52.388;9.986;2023-05-29T01:52:02;14.50;93.60
77582;DHT22;66726;52.388;9.986;2023-05-29T01:54:36;14.30;93.90
77582;DHT22;66726;52.388;9.986;2023-05-29T01:57:10;14.30;93.90
77582;DHT22;66726;52.388;9.986;2023-05-29T01:59:43;14.30;94.00
77582;DHT22;66726;52.388;9.986;2023-05-29T02:02:17;14.40;93.80
77582;DHT22;66726;52.388;9.986;2023-05-29T02:04:52;14.30;93.70
77582;DHT22;66726;52.388;9.986;2023-05-29T02:07:26;14.30;93.90
77582;DHT22;66726;52.388;9.986;2023-05-29T02:09:59;14.30;93.70
77582;DHT22;66726;52.388;9.986;2023-05-29T02:12:33;14.30;93.40
77582;DHT22;66726;52.388;9.986;2023-05-29T02:15:08;14.20;93.60
77582;DHT22;66726;52.388;9.986;2023-05-29T02:17:42;14.20;93.60
77582;DHT22;66726;52.388;9.986;2023-05-29T02:20:16;14.20;93.60
77582;DHT22;66726;52.388;9.986;2023-05-29T02:22:50;14.00;93.80
77582;DHT22;66726;52.388;9.986;2023-05-29T02:25:23;14.00;94.10
77582;DHT22;66726;52.388;9.986;2023-05-29T02:27:57;13.90;94.10
77582;DHT22;66726;52.388;9.986;2023-05-29T02:30:30;13.80;94.30
77582;DHT22;66726;52.388;9.986;2023-05-29T02:33:03;13.80;94.40
77582;DHT22;66726;52.388;9.986;2023-05-29T02:35:37;13.70;94.20
77582;DHT22;66726;52.388;9.986;2023-05-29T02:38:11;13.70;94.30
77582;DHT22;66726;52.388;9.986;2023-05-29T02:40:44;13.70;94.00
77582;DHT22;66726;52.388;9.986;2023-05-29T02:43:17;13.60;94.30
77582;DHT22;66726;52.388;9.986;2023-05-29T02:45:52;13.60;94.50
77582;DHT22;66726;52.388;9.986;2023-05-29T02:48:26;13.50;94.50
77582;DHT22;66726;52.388;9.986;2023-05-29T02:50:59;13.40;94.70
77582;DHT22;66726;52.388;9.986;2023-05-29T02:53:33;13.50;94.80
77582;DHT22;66726;52.388;9.986;2023-05-29T02:56:08;13.60;94.40
77582;DHT22;66726;52.388;9.986;2023-05-29T02:58:42;13.50;94.30
77582;DHT22;66726;52.388;9.986;2023-05-29T03:01:17;13.50;94.40
77582;DHT22;66726;52.388;9.986;2023-05-29T03:03:51;13.50;94.50
77582;DHT22;66726;52.388;9.986;2023-05-29T03:06:27;13.40;94.50
77582;DHT22;66726;52.388;9.986;2023-05-29T03:09:02;13.40;94.50
77582;DHT22;66726;52.388;9.986;2023-05-29T03:11:36;13.30;94.70
77582;DHT22;66726;52.388;9.986;2023-05-29T03:14:11;13.40;94.60
77582;DHT22;66726;52.388;9.986;2023-05-29T03:16:44;13.50;94.40
77582;DHT22;66726;52.388;9.986;2023-05-29T03:19:19;13.50;94.20
77582;DHT22;66726;52.388;9.986;2023-05-29T03:21:52;13.40;94.50
77582;DHT22;66726;52.388;9.986;2023-05-29T03:24:26;13.20;94.60
77582;DHT22;66726;52.388;9.986;2023-05-29T03:26:59;13.20;94.90
77582;DHT22;66726;52.388;9.986;2023-05-29T03:29:33;13.10;95.10
77582;DHT22;66726;52.388;9.986;2023-05-29T03:32:07;13.10;95.30
77582;DHT22;66726;52.388;9.986;2023-05-29T03:34:40;13.10;95.10
77582;DHT22;66726;52.388;9.986;2023-05-29T03:37:14;12.90;95.40
77582;DHT22;66726;52.388;9.986;2023-05-29T03:39:47;13.00;95.50
77582;DHT22;66726;52.388;9.986;2023-05-29T03:42:22;13.00;95.60
77582;DHT22;66726;52.388;9.986;2023-05-29T03:44:55;13.00;95.60
77582;DHT22;66726;52.388;9.986;2023-05-29T03:47:28;13.00;95.60
77582;DHT22;66726;52.388;9.986;2023-05-29T03:50:02;13.10;96.00
77582;DHT22;66726;52.388;9.986;2023-05-29T03:52:35;13.10;95.60
77582;DHT22;66726;52.388;9.986;2023-05-29T03:55:12;12.90;95.90
77582;DHT22;66726;52.388;9.986;2023-05-29T03:57:45;12.90;96.10
77582;DHT22;66726;52.388;9.986;2023-05-29T04:00:18;13.00;96.10
77582;DHT22;66726;52.388;9.986;2023-05-29T04:02:51;13.00;96.00
77582;DHT22;66726;52.388;9.986;2023-05-29T04:05:26;13.00;96.00
77582;DHT22;66726;52.388;9.986;2023-05-29T04:08:01;13.00;96.30
77582;DHT22;66726;52.388;9.986;2023-05-29T04:10:44;13.10;96.20
77582;DHT22;66726;52.388;9.986;2023-05-29T04:13:18;13.10;96.10
77582;DHT22;66726;52.388;9.986;2023-05-29T04:15:52;13.20;96.00
77582;DHT22;66726;52.388;9.986;2023-05-29T04:18:26;13.10;95.90
77582;DHT22;66726;52.388;9.986;2023-05-29T04:20:59;13.00;96.10
77582;DHT22;66726;52.388;9.986;2023-05-29T04:23:32;13.10;96.00
77582;DHT22;66726;52.388;9.986;2023-05-29T04:26:06;13.10;96.00
77582;DHT22;66726;52.388;9.986;2023-05-29T04:28:40;13.00;96.20
77582;DHT22;66726;52.388;9.986;2023-05-29T04:31:13;13.10;96.10
77582;DHT22;66726;52.388;9.986;2023-05-29T04:33:47;13.10;96.10
77582;DHT22;66726;52.388;9.986;2023-05-29T04:36:25;13.10;96.20
77582;DHT22;66726;52.388;9.986;2023-05-29T04:39:02;13.10;96.10
77582;DHT22;66726;52.388;9.986;2023-05-29T04:41:37;13.00;96.40
77582;DHT22;66726;52.388;9.986;2023-05-29T04:44:11;12.90;96.40
77582;DHT22;66726;52.388;9.986;2023-05-29T04:46:45;12.80;96.60
77582;DHT22;66726;52.388;9.986;2023-05-29T04:49:18;12.90;96.40
77582;DHT22;66726;52.388;9.986;2023-05-29T04:51:51;13.00;96.40
77582;DHT22;66726;52.388;9.986;2023-05-29T04:54:25;13.00;96.30
77582;DHT22;66726;52.388;9.986;2023-05-29T04:56:58;13.00;96.10
77582;DHT22;66726;52.388;9.986;2023-05-29T04:59:31;13.00;96.00
77582;DHT22;66726;52.388;9.986;2023-05-29T05:02:06;13.00;95.90
77582;DHT22;66726;52.388;9.986;2023-05-29T05:04:40;13.10;95.90
77582;DHT22;66726;52.388;9.986;2023-05-29T05:07:15;13.10;95.80
77582;DHT22;66726;52.388;9.986;2023-05-29T05:09:48;13.10;95.90
77582;DHT22;66726;52.388;9.986;2023-05-29T05:12:22;13.10;95.60
77582;DHT22;66726;52.388;9.986;2023-05-29T05:14:55;13.20;95.70
77582;DHT22;66726;52.388;9.986;2023-05-29T05:17:28;13.20;95.70
77582;DHT22;66726;52.388;9.986;2023-05-29T05:20:01;13.30;95.70
77582;DHT22;66726;52.388;9.986;2023-05-29T05:22:36;13.20;95.20
77582;DHT22;66726;52.388;9.986;2023-05-29T05:25:10;13.10;95.50
77582;DHT22;66726;52.388;9.986;2023-05-29T05:27:44;13.10;95.10
77582;DHT22;66726;52.388;9.986;2023-05-29T05:30:17;13.10;95.20
77582;DHT22;66726;52.388;9.986;2023-05-29T05:32:51;13.00;94.90
77582;DHT22;66726;52.388;9.986;2023-05-29T05:35:24;13.00;95.30
77582;DHT22;66726;52.388;9.986;2023-05-29T05:37:58;13.10;95.10
77582;DHT22;66726;52.388;9.986;2023-05-29T05:40:31;13.00;95.10
77582;DHT22;66726;52.388;9.986;2023-05-29T05:43:05;13.10;95.10
77582;DHT22;66726;52.388;9.986;2023-05-29T05:45:39;13.20;95.00
77582;DHT22;66726;52.388;9.986;2023-05-29T05:48:13;13.10;95.00
77582;DHT22;66726;52.388;9.986;2023-05-29T05:50:46;13.20;95.10
77582;DHT22;66726;52.388;9.986;2023-05-29T05:53:20;13.10;94.70
77582;DHT22;66726;52.388;9.986;2023-05-29T05:55:54;13.10;94.90
77582;DHT22;66726;52.388;9.986;2023-05-29T05:58:27;13.20;94.90
77582;DHT22;66726;52.388;9.986;2023-05-29T06:01:00;13.30;95.00
77582;DHT22;66726;52.388;9.986;2023-05-29T06:03:34;13.30;94.80
77582;DHT22;66726;52.388;9.986;2023-05-29T06:06:08;13.40;94.60
77582;DHT22;66726;52.388;9.986;2023-05-29T06:08:41;13.40;94.50
77582;DHT22;66726;52.388;9.986;2023-05-29T06:11:16;13.40;94.40
77582;DHT22;66726;52.388;9.986;2023-05-29T06:13:49;13.40;94.50
77582;DHT22;66726;52.388;9.986;2023-05-29T06:16:23;13.40;94.60
77582;DHT22;66726;52.388;9.986;2023-05-29T06:18:57;13.40;94.50
77582;DHT22;66726;52.388;9.986;2023-05-29T06:21:31;13.50;94.50
77582;DHT22;66726;52.388;9.986;2023-05-29T06:24:04;13.60;94.50
77582;DHT22;66726;52.388;9.986;2023-05-29T06:26:38;13.60;94.50
77582;DHT22;66726;52.388;9.986;2023-05-29T06:29:12;13.60;94.30
77582;DHT22;66726;52.388;9.986;2023-05-29T06:31:45;13.50;94.10
77582;DHT22;66726;52.388;9.986;2023-05-29T06:34:19;13.60;94.30
77582;DHT22;66726;52.388;9.986;2023-05-29T06:36:52;13.70;94.40
77582;DHT22;66726;52.388;9.986;2023-05-29T06:39:25;13.60;94.40
77582;DHT22;66726;52.388;9.986;2023-05-29T06:41:58;13.70;94.30
77582;DHT22;66726;52.388;9.986;2023-05-29T06:44:32;13.70;94.10
77582;DHT22;66726;52.388;9.986;2023-05-29T06:47:06;13.80;94.30
77582;DHT22;66726;52.388;9.986;2023-05-29T06:49:40;13.80;94.20
77582;DHT22;66726;52.388;9.986;2023-05-29T06:52:13;13.80;94.10
77582;DHT22;66726;52.388;9.986;2023-05-29T06:54:46;13.90;94.10
77582;DHT22;66726;52.388;9.986;2023-05-29T06:57:20;14.00;93.90
77582;DHT22;66726;52.388;9.986;2023-05-29T06:59:53;14.00;94.40
77582;DHT22;66726;52.388;9.986;2023-05-29T07:02:26;14.10;94.10
77582;DHT22;66726;52.388;9.986;2023-05-29T07:05:00;14.10;93.90
77582;DHT22;66726;52.388;9.986;2023-05-29T07:07:34;14.20;93.90
77582;DHT22;66726;52.388;9.986;2023-05-29T07:10:10;14.10;93.80
77582;DHT22;66726;52.388;9.986;2023-05-29T07:12:43;14.10;93.80
77582;DHT22;66726;52.388;9.986;2023-05-29T07:15:16;14.10;94.10
77582;DHT22;66726;52.388;9.986;2023-05-29T07:17:50;14.30;93.90
77582;DHT22;66726;52.388;9.986;2023-05-29T07:20:23;14.20;93.60
77582;DHT22;66726;52.388;9.986;2023-05-29T07:22:57;14.30;93.50
77582;DHT22;66726;52.388;9.986;2023-05-29T07:25:31;14.40;94.40
77582;DHT22;66726;52.388;9.986;2023-05-29T07:28:04;14.50;93.30
77582;DHT22;66726;52.388;9.986;2023-05-29T07:30:51;14.60;93.20
77582;DHT22;66726;52.388;9.986;2023-05-29T07:33:25;14.70;93.00
77582;DHT22;66726;52.388;9.986;2023-05-29T07:35:58;14.80;93.30
77582;DHT22;66726;52.388;9.986;2023-05-29T07:38:31;14.80;92.30
77582;DHT22;66726;52.388;9.986;2023-05-29T07:41:05;14.90;92.20
77582;DHT22;66726;52.388;9.986;2023-05-29T07:43:38;15.00;92.50
77582;DHT22;66726;52.388;9.986;2023-05-29T07:46:12;15.10;91.80
77582;DHT22;66726;52.388;9.986;2023-05-29T07:48:45;15.20;91.70
77582;DHT22;66726;52.388;9.986;2023-05-29T07:51:19;15.30;91.70
77582;DHT22;66726;52.388;9.986;2023-05-29T07:53:52;15.30;91.40
77582;DHT22;66726;52.388;9.986;2023-05-29T07:56:25;15.40;91.50
77582;DHT22;66726;52.388;9.986;2023-05-29T07:58:59;15.40;91.10
77582;DHT22;66726;52.388;9.986;2023-05-29T08:01:33;15.50;90.70
77582;DHT22;66726;52.388;9.986;2023-05-29T08:04:06;15.50;90.60
77582;DHT22;66726;52.388;9.986;2023-05-29T08:06:40;15.60;90.90
77582;DHT22;66726;52.388;9.986;2023-05-29T08:09:14;15.60;90.20
77582;DHT22;66726;52.388;9.986;2023-05-29T08:11:47;15.70;90.00
77582;DHT22;66726;52.388;9.986;2023-05-29T08:14:21;15.80;89.90
77582;DHT22;66726;52.388;9.986;2023-05-29T08:16:54;15.90;88.50
77582;DHT22;66726;52.388;9.986;2023-05-29T08:19:28;16.00;88.90
77582;DHT22;66726;52.388;9.986;2023-05-29T08:22:02;16.10;88.60
77582;DHT22;66726;52.388;9.986;2023-05-29T08:24:35;16.20;90.00
77582;DHT22;66726;52.388;9.986;2023-05-29T08:27:08;16.20;88.00
77582;DHT22;66726;52.388;9.986;2023-05-29T08:29:43;16.30;87.40
77582;DHT22;66726;52.388;9.986;2023-05-29T08:32:17;16.30;87.00
77582;DHT22;66726;52.388;9.986;2023-05-29T08:34:50;16.40;86.50
77582;DHT22;66726;52.388;9.986;2023-05-29T08:37:24;16.50;87.60
77582;DHT22;66726;52.388;9.986;2023-05-29T08:39:58;16.50;84.80
77582;DHT22;66726;52.388;9.986;2023-05-29T08:42:39;16.60;84.20
77582;DHT22;66726;52.388;9.986;2023-05-29T08:45:20;16.70;87.00
77582;DHT22;66726;52.388;9.986;2023-05-29T08:47:56;16.80;85.20
77582;DHT22;66726;52.388;9.986;2023-05-29T08:50:31;16.90;84.60
77582;DHT22;66726;52.388;9.986;2023-05-29T08:53:06;17.00;87.40
77582;DHT22;66726;52.388;9.986;2023-05-29T08:55:40;17.10;84.20
77582;DHT22;66726;52.388;9.986;2023-05-29T08:58:14;17.10;80.60
77582;DHT22;66726;52.388;9.986;2023-05-29T09:00:49;17.10;81.80
77582;DHT22;66726;52.388;9.986;2023-05-29T09:03:23;17.10;81.40
77582;DHT22;66726;52.388;9.986;2023-05-29T09:06:01;17.20;80.00
77582;DHT22;66726;52.388;9.986;2023-05-29T09:08:37;17.30;80.10
77582;DHT22;66726;52.388;9.986;2023-05-29T09:11:10;17.40;80.50
77582;DHT22;66726;52.388;9.986;2023-05-29T09:13:43;17.40;77.10
77582;DHT22;66726;52.388;9.986;2023-05-29T09:16:17;17.30;77.80
77582;DHT22;66726;52.388;9.986;2023-05-29T09:18:52;17.50;80.50
77582;DHT22;66726;52.388;9.986;2023-05-29T09:21:35;17.60;79.10
77582;DHT22;66726;52.388;9.986;2023-05-29T09:24:10;17.60;77.50
77582;DHT22;66726;52.388;9.986;2023-05-29T09:26:51;17.70;76.40
77582;DHT22;66726;52.388;9.986;2023-05-29T09:29:25;17.70;76.40
77582;DHT22;66726;52.388;9.986;2023-05-29T09:32:01;17.70;78.40
77582;DHT22;66726;52.388;9.986;2023-05-29T09:34:38;17.90;76.00
77582;DHT22;66726;52.388;9.986;2023-05-29T09:37:13;17.90;76.70
77582;DHT22;66726;52.388;9.986;2023-05-29T09:39:52;18.10;78.40
77582;DHT22;66726;52.388;9.986;2023-05-29T09:42:26;18.20;76.40
77582;DHT22;66726;52.388;9.986;2023-05-29T09:45:01;18.20;74.60
77582;DHT22;66726;52.388;9.986;2023-05-29T09:47:40;18.40;76.30
77582;DHT22;66726;52.388;9.986;2023-05-29T09:50:21;18.50;76.70
77582;DHT22;66726;52.388;9.986;2023-05-29T09:52:59;18.60;74.70
77582;DHT22;66726;52.388;9.986;2023-05-29T09:55:35;18.70;74.40
77582;DHT22;66726;52.388;9.986;2023-05-29T09:58:09;18.80;78.20
77582;DHT22;66726;52.388;9.986;2023-05-29T10:00:45;18.90;74.70
77582;DHT22;66726;52.388;9.986;2023-05-29T10:03:19;18.90;74.60
77582;DHT22;66726;52.388;9.986;2023-05-29T10:05:56;19.00;74.20
77582;DHT22;66726;52.388;9.986;2023-05-29T10:08:33;19.00;74.40
77582;DHT22;66726;52.388;9.986;2023-05-29T10:11:09;19.10;75.00
77582;DHT22;66726;52.388;9.986;2023-05-29T10:13:46;19.20;74.10
77582;DHT22;66726;52.388;9.986;2023-05-29T10:16:24;19.20;72.30
77582;DHT22;66726;52.388;9.986;2023-05-29T10:18:59;19.30;71.00
77582;DHT22;66726;52.388;9.986;2023-05-29T10:21:39;19.40;70.60
77582;DHT22;66726;52.388;9.986;2023-05-29T10:24:14;19.50;70.30
77582;DHT22;66726;52.388;9.986;2023-05-29T10:26:50;19.60;70.40
77582;DHT22;66726;52.388;9.986;2023-05-29T10:29:31;19.80;69.50
77582;DHT22;66726;52.388;9.986;2023-05-29T10:32:21;19.90;69.50
77582;DHT22;66726;52.388;9.986;2023-05-29T10:35:08;19.90;69.80
77582;DHT22;66726;52.388;9.986;2023-05-29T10:37:52;20.00;66.70
77582;DHT22;66726;52.388;9.986;2023-05-29T10:40:31;20.00;66.10
77582;DHT22;66726;52.388;9.986;2023-05-29T10:43:05;20.10;68.50
77582;DHT22;66726;52.388;9.986;2023-05-29T10:46:00;20.20;66.40
77582;DHT22;66726;52.388;9.986;2023-05-29T10:48:44;20.10;64.30
77582;DHT22;66726;52.388;9.986;2023-05-29T10:51:28;20.20;64.00
77582;DHT22;66726;52.388;9.986;2023-05-29T10:54:02;20.30;64.10
77582;DHT22;66726;52.388;9.986;2023-05-29T10:56:39;20.30;65.10
77582;DHT22;66726;52.388;9.986;2023-05-29T10:59:15;20.50;64.50
77582;DHT22;66726;52.388;9.986;2023-05-29T11:01:53;20.70;65.30
77582;DHT22;66726;52.388;9.986;2023-05-29T11:04:31;20.70;62.70
77582;DHT22;66726;52.388;9.986;2023-05-29T11:07:05;20.70;63.20
77582;DHT22;66726;52.388;9.986;2023-05-29T11:10:12;20.70;62.80
77582;DHT22;66726;52.388;9.986;2023-05-29T11:13:05;21.00;64.40
77582;DHT22;66726;52.388;9.986;2023-05-29T11:15:39;21.00;61.20
77582;DHT22;66726;52.388;9.986;2023-05-29T11:18:13;20.90;58.80
77582;DHT22;66726;52.388;9.986;2023-05-29T11:20:56;21.10;61.50
77582;DHT22;66726;52.388;9.986;2023-05-29T11:23:40;21.20;60.10
77582;DHT22;66726;52.388;9.986;2023-05-29T11:26:16;21.30;58.90
77582;DHT22;66726;52.388;9.986;2023-05-29T11:28:52;21.30;59.20
77582;DHT22;66726;52.388;9.986;2023-05-29T11:31:28;21.40;58.70
77582;DHT22;66726;52.388;9.986;2023-05-29T11:34:08;21.40;59.50
77582;DHT22;66726;52.388;9.986;2023-05-29T11:36:46;21.40;59.00
77582;DHT22;66726;52.388;9.986;2023-05-29T11:39:20;21.50;58.80
77582;DHT22;66726;52.388;9.986;2023-05-29T11:41:56;21.40;56.50
77582;DHT22;66726;52.388;9.986;2023-05-29T11:44:32;21.70;57.10
77582;DHT22;66726;52.388;9.986;2023-05-29T11:47:07;21.80;58.80
77582;DHT22;66726;52.388;9.986;2023-05-29T11:49:40;21.80;56.70
77582;DHT22;66726;52.388;9.986;2023-05-29T11:52:17;21.90;56.90
77582;DHT22;66726;52.388;9.986;2023-05-29T11:54:52;22.00;57.00
77582;DHT22;66726;52.388;9.986;2023-05-29T11:57:30;21.90;57.50
77582;DHT22;66726;52.388;9.986;2023-05-29T12:00:04;21.70;54.60
77582;DHT22;66726;52.388;9.986;2023-05-29T12:02:40;21.90;58.80
77582;DHT22;66726;52.388;9.986;2023-05-29T12:05:18;22.10;56.40
77582;DHT22;66726;52.388;9.986;2023-05-29T12:07:53;22.20;56.80
77582;DHT22;66726;52.388;9.986;2023-05-29T12:10:31;22.10;55.10
77582;DHT22;66726;52.388;9.986;2023-05-29T12:13:04;22.30;55.40
77582;DHT22;66726;52.388;9.986;2023-05-29T12:15:38;22.30;55.10
77582;DHT22;66726;52.388;9.986;2023-05-29T12:18:11;22.40;55.60
77582;DHT22;66726;52.388;9.986;2023-05-29T12:20:45;22.50;55.90
77582;DHT22;66726;52.388;9.986;2023-05-29T12:23:20;22.40;55.40
77582;DHT22;66726;52.388;9.986;2023-05-29T12:25:55;22.60;55.00
77582;DHT22;66726;52.388;9.986;2023-05-29T12:28:29;22.50;53.00
77582;DHT22;66726;52.388;9.986;2023-05-29T12:31:02;22.70;54.20
77582;DHT22;66726;52.388;9.986;2023-05-29T12:33:36;22.60;53.00
77582;DHT22;66726;52.388;9.986;2023-05-29T12:36:14;22.80;52.30
77582;DHT22;66726;52.388;9.986;2023-05-29T12:38:51;22.80;52.50
77582;DHT22;66726;52.388;9.986;2023-05-29T12:41:29;22.80;52.30
77582;DHT22;66726;52.388;9.986;2023-05-29T12:44:06;22.70;53.70
77582;DHT22;66726;52.388;9.986;2023-05-29T12:46:41;22.60;51.30
77582;DHT22;66726;52.388;9.986;2023-05-29T12:49:16;22.90;53.30
77582;DHT22;66726;52.388;9.986;2023-05-29T12:51:50;23.10;50.60
77582;DHT22;66726;52.388;9.986;2023-05-29T12:54:23;23.00;51.10
77582;DHT22;66726;52.388;9.986;2023-05-29T12:56:59;23.10;51.50
77582;DHT22;66726;52.388;9.986;2023-05-29T12:59:32;23.10;52.10
77582;DHT22;66726;52.388;9.986;2023-05-29T13:02:06;23.30;51.60
77582;DHT22;66726;52.388;9.986;2023-05-29T13:04:40;23.30;50.50
77582;DHT22;66726;52.388;9.986;2023-05-29T13:07:13;23.20;47.90
77582;DHT22;66726;52.388;9.986;2023-05-29T13:09:47;23.30;50.30
77582;DHT22;66726;52.388;9.986;2023-05-29T13:12:20;23.50;50.30
77582;DHT22;66726;52.388;9.986;2023-05-29T13:14:53;23.60;48.90
77582;DHT22;66726;52.388;9.986;2023-05-29T13:17:27;23.80;46.50
77582;DHT22;66726;52.388;9.986;2023-05-29T13:20:04;23.70;45.30
77582;DHT22;66726;52.388;9.986;2023-05-29T13:22:41;23.70;46.40
77582;DHT22;66726;52.388;9.986;2023-05-29T13:25:17;23.90;46.70
77582;DHT22;66726;52.388;9.986;2023-05-29T13:27:54;24.00;44.30
77582;DHT22;66726;52.388;9.986;2023-05-29T13:30:27;24.10;45.90
77582;DHT22;66726;52.388;9.986;2023-05-29T13:33:01;24.10;42.90
77582;DHT22;66726;52.388;9.986;2023-05-29T13:35:34;24.30;43.00
77582;DHT22;66726;52.388;9.986;2023-05-29T13:38:07;24.30;41.70
77582;DHT22;66726;52.388;9.986;2023-05-29T13:40:41;23.80;38.00
77582;DHT22;66726;52.388;9.986;2023-05-29T13:43:14;24.00;41.70
77582;DHT22;66726;52.388;9.986;2023-05-29T13:45:51;24.30;40.50
77582;DHT22;66726;52.388;9.986;2023-05-29T13:48:26;24.50;40.90
77582;DHT22;66726;52.388;9.986;2023-05-29T13:50:59;24.40;35.80
77582;DHT22;66726;52.388;9.986;2023-05-29T13:53:32;24.20;36.80
77582;DHT22;66726;52.388;9.986;2023-05-29T13:56:06;24.10;35.60
77582;DHT22;66726;52.388;9.986;2023-05-29T13:58:40;24.40;37.60
77582;DHT22;66726;52.388;9.986;2023-05-29T14:01:14;24.70;37.10
77582;DHT22;66726;52.388;9.986;2023-05-29T14:03:49;24.40;34.70
77582;DHT22;66726;52.388;9.986;2023-05-29T14:06:23;24.60;35.90
77582;DHT22;66726;52.388;9.986;2023-05-29T14:08:56;24.60;34.40
77582;DHT22;66726;52.388;9.986;2023-05-29T14:11:30;24.40;34.50
77582;DHT22;66726;52.388;9.986;2023-05-29T14:14:06;24.70;34.70
77582;DHT22;66726;52.388;9.986;2023-05-29T14:16:39;24.70;35.10
77582;DHT22;66726;52.388;9.986;2023-05-29T14:19:13;24.80;36.30
77582;DHT22;66726;52.388;9.986;2023-05-29T14:21:47;25.10;36.70
77582;DHT22;66726;52.388;9.986;2023-05-29T14:24:21;25.10;32.10
77582;DHT22;66726;52.388;9.986;2023-05-29T14:26:55;25.10;31.80
77582;DHT22;66726;52.388;9.986;2023-05-29T14:29:28;25.10;31.40
77582;DHT22;66726;52.388;9.986;2023-05-29T14:32:01;25.20;31.00
77582;DHT22;66726;52.388;9.986;2023-05-29T14:34:35;25.10;32.10
77582;DHT22;66726;52.388;9.986;2023-05-29T14:37:08;25.10;33.60
77582;DHT22;66726;52.388;9.986;2023-05-29T14:39:42;25.10;32.00
77582;DHT22;66726;52.388;9.986;2023-05-29T14:42:15;25.10;31.00
77582;DHT22;66726;52.388;9.986;2023-05-29T14:44:48;25.20;30.60
77582;DHT22;66726;52.388;9.986;2023-05-29T14:47:22;25.10;30.10
77582;DHT22;66726;52.388;9.986;2023-05-29T14:49:55;25.20;30.00
77582;DHT22;66726;52.388;9.986;2023-05-29T14:52:29;25.50;33.90
77582;DHT22;66726;52.388;9.986;2023-05-29T14:55:03;25.40;31.40
77582;DHT22;66726;52.388;9.986;2023-05-29T14:57:37;25.60;31.30
77582;DHT22;66726;52.388;9.986;2023-05-29T15:00:13;25.40;30.80
77582;DHT22;66726;52.388;9.986;2023-05-29T15:02:49;25.60;30.00
77582;DHT22;66726;52.388;9.986;2023-05-29T15:05:23;25.40;29.80
77582;DHT22;66726;52.388;9.986;2023-05-29T15:07:57;25.40;31.30
77582;DHT22;66726;52.388;9.986;2023-05-29T15:10:30;25.30;30.40
77582;DHT22;66726;52.388;9.986;2023-05-29T15:13:04;25.50;31.70
77582;DHT22;66726;52.388;9.986;2023-05-29T15:15:38;25.30;29.90
77582;DHT22;66726;52.388;9.986;2023-05-29T15:18:28;25.50;30.30
77582;DHT22;66726;52.388;9.986;2023-05-29T15:21:02;25.50;29.80
77582;DHT22;66726;52.388;9.986;2023-05-29T15:23:36;25.40;31.10
77582;DHT22;66726;52.388;9.986;2023-05-29T15:26:10;25.40;30.90
77582;DHT22;66726;52.388;9.986;2023-05-29T15:28:43;25.40;30.80
77582;DHT22;66726;52.388;9.986;2023-05-29T15:31:17;25.50;29.90
77582;DHT22;66726;52.388;9.986;2023-05-29T15:33:52;25.30;29.40
77582;DHT22;66726;52.388;9.986;2023-05-29T15:36:26;25.20;31.60
77582;DHT22;66726;52.388;9.986;2023-05-29T15:38:59;25.00;29.90
77582;DHT22;66726;52.388;9.986;2023-05-29T15:41:33;25.20;30.90
77582;DHT22;66726;52.388;9.986;2023-05-29T15:44:05;25.10;30.20
77582;DHT22;66726;52.388;9.986;2023-05-29T15:46:36;25.10;30.60
77582;DHT22;66726;52.388;9.986;2023-05-29T15:49:09;25.10;29.90
77582;DHT22;66726;52.388;9.986;2023-05-29T15:51:42;25.10;30.50
77582;DHT22;66726;52.388;9.986;2023-05-29T15:54:14;25.10;31.20
77582;DHT22;66726;52.388;9.986;2023-05-29T15:56:47;24.90;30.20
77582;DHT22;66726;52.388;9.986;2023-05-29T15:59:19;25.00;32.60
77582;DHT22;66726;52.388;9.986;2023-05-29T16:01:51;25.10;32.70
77582;DHT22;66726;52.388;9.986;2023-05-29T16:04:23;25.10;32.20
77582;DHT22;66726;52.388;9.986;2023-05-29T16:06:55;25.20;32.70
77582;DHT22;66726;52.388;9.986;2023-05-29T16:09:27;25.10;33.60
77582;DHT22;66726;52.388;9.986;2023-05-29T16:12:00;25.10;33.60
77582;DHT22;66726;52.388;9.986;2023-05-29T16:14:32;24.90;33.20
77582;DHT22;66726;52.388;9.986;2023-05-29T16:17:04;24.80;34.50
77582;DHT22;66726;52.388;9.986;2023-05-29T16:19:37;24.60;33.80